createdAt,value
2022-10-29T00:15:47.679Z,1025.27
2022-10-29T00:44:50.024Z,1025.29
2022-10-29T01:13:50.964Z,1025.29
2022-10-29T01:42:55.041Z,1025.25
2022-10-29T02:11:33.933Z,1024.92
2022-10-29T02:40:35.967Z,1024.61
2022-10-29T03:09:39.807Z,1024.1
2022-10-29T03:38:43.984Z,1024.23
2022-10-29T04:07:47.849Z,1024.31
2022-10-29T04:36:50.642Z,1024.46
2022-10-29T05:05:56.057Z,1024.35
2022-10-29T05:34:55.185Z,1024.15
2022-10-29T06:04:30.440Z,1024.22
2022-10-29T06:33:20.127Z,1024.35
2022-10-29T07:02:22.260Z,1024.5
2022-10-29T07:31:34.871Z,1024.56
2022-10-29T08:00:34.964Z,1024.51
2022-10-29T08:30:29.017Z,1024.44
2022-10-29T09:00:00.039Z,1024.45
2022-10-29T09:29:02.318Z,1024.74
2022-10-29T09:57:22.120Z,1024.46
2022-10-29T10:26:18.448Z,1024.33
2022-10-29T10:55:20.868Z,1023.85
2022-10-29T11:24:25.978Z,1023.35
2022-10-29T11:53:36.782Z,1023.07
2022-10-29T12:22:42.883Z,1022.86
2022-10-29T12:51:40.822Z,1022.66
2022-10-29T13:20:45.101Z,1022.44
2022-10-29T13:49:52.840Z,1022.11
2022-10-29T14:18:55.637Z,1021.95
2022-10-29T14:48:01.877Z,1021.88
2022-10-29T15:17:02.987Z,1021.77
2022-10-29T15:46:01.159Z,1021.67
2022-10-29T16:15:03.593Z,1021.77
2022-10-29T16:44:01.219Z,1021.78
2022-10-29T17:13:02.135Z,1021.77
2022-10-29T17:42:04.533Z,1021.89
2022-10-29T18:11:10.166Z,1022.11
2022-10-29T18:40:15.620Z,1022.13
2022-10-29T19:09:19.753Z,1022.18
2022-10-29T19:38:27.983Z,1022.02
2022-10-29T20:07:10.576Z,1022.07
2022-10-29T20:36:16.010Z,1022.13
2022-10-29T21:05:13.889Z,1022.14
2022-10-29T21:34:15.142Z,1022.2
2022-10-29T22:03:14.360Z,1022.45
2022-10-29T22:32:15.831Z,1022.25
2022-10-29T23:01:17.628Z,1022
2022-10-29T23:30:03.634Z,1021.64
2022-10-29T23:58:53.771Z,1022.09
